createdAt,value
2022-08-05T00:00:12.401Z,-15262.09
2022-08-05T00:06:02.723Z,-15262.09
2022-08-05T00:10:45.728Z,-15262.09
2022-08-05T00:15:55.906Z,-15262.09
2022-08-05T00:21:01.717Z,-15262.09
2022-08-05T00:26:07.586Z,-15262.09
2022-08-05T00:31:11.300Z,-15262.09
2022-08-05T00:37:08.852Z,-15262.09
2022-08-05T00:41:51.421Z,-15262.09
2022-08-05T00:47:03.670Z,-15262.09
2022-08-05T00:52:07.778Z,-15262.09
2022-08-05T00:57:12.593Z,-15262.09
2022-08-05T01:02:16.629Z,-15262.09
2022-08-05T01:07:20.186Z,-15262.09
2022-08-05T01:12:29.812Z,-15262.09
2022-08-05T01:17:43.975Z,-15262.09
2022-08-05T01:23:13.611Z,-15262.09
2022-08-05T01:28:36.786Z,-15262.09
2022-08-05T01:33:53.661Z,-15262.09
2022-08-05T01:39:00.385Z,-15262.09
2022-08-05T01:44:09.837Z,-15262.09
2022-08-05T01:49:23.685Z,-15262.09
2022-08-05T01:54:33.177Z,-15262.09
2022-08-05T01:59:40.669Z,-15262.09
2022-08-05T02:04:54.010Z,-15262.09
2022-08-05T02:09:59.232Z,-15262.09
2022-08-05T02:15:12.379Z,-15262.09
2022-08-05T02:20:21.204Z,-15262.09
2022-08-05T02:25:33.444Z,-15262.09
2022-08-05T02:30:54.810Z,-15262.09
2022-08-05T02:36:01.742Z,-15262.09
2022-08-05T02:41:17.309Z,-15262.09
2022-08-05T02:46:27.411Z,-15262.09
2022-08-05T02:52:04.331Z,-15262.09
2022-08-05T02:56:56.253Z,-15262.09
2022-08-05T03:02:02.585Z,-15262.09
2022-08-05T03:07:07.613Z,-15262.09
2022-08-05T03:12:31.877Z,-15262.09
2022-08-05T03:17:41.624Z,-15262.09
2022-08-05T03:22:49.881Z,-15262.09
2022-08-05T03:27:59.827Z,-15262.09
2022-08-05T03:33:07.405Z,-15262.09
2022-08-05T03:38:14.499Z,-15262.09
2022-08-05T03:44:09.178Z,-15262.09
2022-08-05T03:48:45.343Z,-15262.09
2022-08-05T03:55:50.064Z,-15262.09
2022-08-05T03:59:20.931Z,-15262.09
2022-08-05T04:04:27.754Z,-15262.09
2022-08-05T04:09:31.896Z,-15262.09
2022-08-05T04:14:40.500Z,-15262.09
2022-08-05T04:19:46.597Z,-15262.09
2022-08-05T04:24:58.169Z,-15262.09
2022-08-05T04:30:04.678Z,-15262.09
2022-08-05T04:35:17.723Z,-15262.09
2022-08-05T04:40:23.502Z,-15262.09
2022-08-05T04:45:48.280Z,-15262.09
2022-08-05T04:51:02.716Z,-15262.09
2022-08-05T04:56:35.129Z,-15262.09
2022-08-05T05:02:08.231Z,-15262.09
2022-08-05T05:07:03.187Z,-15262.09
2022-08-05T05:12:07.082Z,-15262.09
2022-08-05T05:17:11.111Z,-15262.09
2022-08-05T05:22:24.258Z,-15262.09
2022-08-05T05:27:45.796Z,-15262.09
2022-08-05T05:32:54.951Z,-15262.09
2022-08-05T05:38:02.452Z,-15262.09
2022-08-05T05:43:08.566Z,-15262.09
2022-08-05T05:48:12.185Z,-15262.09
2022-08-05T05:53:22.731Z,-15262.09
2022-08-05T05:58:30.232Z,-15262.09
2022-08-05T06:03:54.128Z,-15262.09
2022-08-05T06:08:59.883Z,-15262.09
2022-08-05T06:14:03.430Z,-15262.09
2022-08-05T06:19:08.170Z,-15262.09
2022-08-05T06:24:14.862Z,-15262.09
2022-08-05T06:29:23.836Z,-15262.09
2022-08-05T06:34:41.967Z,-15262.09
2022-08-05T06:39:51.844Z,-15262.09
2022-08-05T06:44:55.327Z,-15262.09
2022-08-05T06:50:05.246Z,-15262.09
2022-08-05T06:55:10.812Z,-15262.09
2022-08-05T07:00:14.880Z,-15262.09
2022-08-05T07:05:37.121Z,-15262.09
2022-08-05T07:10:53.339Z,-15262.09
2022-08-05T07:17:55.931Z,-15262.09
2022-08-05T07:22:00.058Z,-15262.09
2022-08-05T07:27:03.002Z,-15262.09
2022-08-05T07:32:07.569Z,-15262.09
2022-08-05T07:37:11.719Z,-15262.09
2022-08-05T07:42:16.633Z,-15262.09
2022-08-05T07:47:42.581Z,-15262.09
2022-08-05T07:52:46.651Z,-15262.09
2022-08-05T07:58:02.111Z,-15262.09
2022-08-05T08:03:13.609Z,-15262.09
2022-08-05T08:08:20.213Z,-15262.09
2022-08-05T08:13:29.235Z,-14485.34
2022-08-05T08:18:33.128Z,-11124.28
2022-08-05T08:24:02.530Z,-8536.81
2022-08-05T08:29:09.735Z,-5947.63
2022-08-05T08:34:30.736Z,-4911.44
2022-08-05T08:39:38.177Z,-6465.59
2022-08-05T08:45:18.731Z,-8277.97
2022-08-05T08:50:31.842Z,-8536.81
2022-08-05T08:56:04.083Z,-9313.25
2022-08-05T09:01:11.176Z,-11641.56
2022-08-05T09:06:21.305Z,-12675.91
2022-08-05T09:11:52.906Z,-13710.00
2022-08-05T09:16:53.395Z,-14743.78
2022-08-05T09:22:18.369Z,-14743.78
2022-08-05T09:28:03.779Z,-13710.00
2022-08-05T09:33:02.981Z,-8536.81
2022-08-05T09:38:12.310Z,8584.19
2022-08-05T09:43:41.207Z,17433.78
2022-08-05T09:49:03.703Z,24997.91
2022-08-05T09:54:11.513Z,34216.13
2022-08-05T09:59:17.511Z,35396.00
2022-08-05T10:04:35.475Z,42927.34
2022-08-05T10:09:45.047Z,44780.16
2022-08-05T10:14:48.700Z,48250.38
2022-08-05T10:20:03.089Z,47275.84
2022-08-05T10:25:08.779Z,49939.41
2022-08-05T10:32:46.780Z,51429.94
2022-08-05T10:35:43.815Z,51487.44
2022-08-05T10:40:58.175Z,51799.59
2022-08-05T10:46:07.259Z,52050.16
2022-08-05T10:51:22.190Z,52442.47
2022-08-05T10:56:28.310Z,52393.16
2022-08-05T11:01:55.233Z,52417.81
2022-08-05T11:07:11.995Z,52450.69
2022-08-05T11:12:54.498Z,52483.53
2022-08-05T11:24:03.423Z,52479.44
2022-08-05T11:29:06.619Z,52528.72
2022-08-05T11:34:18.091Z,52567.75
2022-08-05T11:39:55.596Z,52520.50
2022-08-05T11:45:22.955Z,52565.69
2022-08-05T11:50:38.449Z,52536.94
2022-08-05T11:55:56.240Z,52573.91
2022-08-05T12:01:03.618Z,52541.06
2022-08-05T12:06:13.283Z,52573.91
2022-08-05T12:11:21.539Z,52584.19
2022-08-05T12:16:27.611Z,52549.28
2022-08-05T12:21:34.494Z,52565.69
2022-08-05T12:26:46.058Z,52569.81
2022-08-05T12:31:53.828Z,52584.19
2022-08-05T12:36:59.878Z,52592.41
2022-08-05T12:42:09.370Z,52582.13
2022-08-05T12:47:28.842Z,52565.69
2022-08-05T12:52:39.425Z,52580.09
2022-08-05T12:58:52.683Z,52573.91
2022-08-05T13:03:12.297Z,52586.25
2022-08-05T13:08:19.601Z,52586.25
2022-08-05T13:14:06.426Z,52586.25
2022-08-05T13:18:52.588Z,52580.09
2022-08-05T13:24:01.012Z,52573.91
2022-08-05T13:29:09.303Z,52565.69
2022-08-05T13:34:22.895Z,52612.94
2022-08-05T13:40:15.165Z,52598.56
2022-08-05T13:44:54.610Z,52534.88
2022-08-05T13:49:58.203Z,52549.28
2022-08-05T13:55:01.837Z,52549.28
2022-08-05T14:00:08.477Z,52586.25
2022-08-05T14:05:29.174Z,52573.91
2022-08-05T14:10:34.906Z,52565.69
2022-08-05T14:16:07.091Z,52573.91
2022-08-05T14:22:07.058Z,52580.09
2022-08-05T14:26:38.625Z,52551.31
2022-08-05T14:32:02.558Z,52530.78
2022-08-05T14:37:09.614Z,52528.72
2022-08-05T14:42:19.314Z,52569.81
2022-08-05T14:48:03.447Z,52532.84
2022-08-05T14:52:59.513Z,52510.25
2022-08-05T14:58:11.888Z,52536.94
2022-08-05T15:03:17.427Z,52520.50
2022-08-05T15:08:58.021Z,52541.06
2022-08-05T15:13:46.623Z,52532.84
2022-08-05T15:18:55.481Z,52520.50
2022-08-05T15:24:00.168Z,52508.19
2022-08-05T15:29:03.630Z,52524.63
2022-08-05T15:34:31.593Z,52506.13
2022-08-05T15:41:00.648Z,52528.72
2022-08-05T15:44:55.407Z,52522.56
2022-08-05T15:50:00.374Z,52520.50
2022-08-05T15:55:04.851Z,52520.50
2022-08-05T16:00:10.677Z,52504.09
2022-08-05T16:05:16.149Z,52510.25
2022-08-05T16:10:23.289Z,52518.47
2022-08-05T16:15:32.529Z,52508.19
2022-08-05T16:20:38.676Z,52524.63
2022-08-05T16:25:42.214Z,52487.66
2022-08-05T16:30:48.507Z,52417.81
2022-08-05T16:35:55.458Z,52426.03
2022-08-05T16:41:02.300Z,52345.91
2022-08-05T16:46:25.687Z,52315.13
2022-08-05T16:51:42.587Z,52380.84
2022-08-05T16:56:54.060Z,52372.63
2022-08-05T17:01:57.554Z,52356.19
2022-08-05T17:07:03.532Z,52356.19
2022-08-05T17:12:14.832Z,52372.63
2022-08-05T17:17:19.823Z,52407.53
2022-08-05T17:22:28.353Z,52391.09
2022-08-05T17:27:34.294Z,52341.81
2022-08-05T17:32:38.104Z,52352.09
2022-08-05T17:37:48.385Z,52327.44
2022-08-05T17:42:53.050Z,52296.63
2022-08-05T17:47:57.049Z,52331.53
2022-08-05T17:53:04.646Z,52294.56
2022-08-05T17:58:12.203Z,52350.03
2022-08-05T18:03:59.781Z,52352.09
2022-08-05T18:08:44.672Z,52378.78
2022-08-05T18:13:49.165Z,52411.66
2022-08-05T18:18:52.627Z,52415.75
2022-08-05T18:23:57.559Z,52391.09
2022-08-05T18:29:01.772Z,52397.28
2022-08-05T18:34:06.373Z,52389.06
2022-08-05T18:39:42.161Z,52438.34
2022-08-05T18:44:55.707Z,52382.91
2022-08-05T18:50:17.706Z,52399.31
2022-08-05T18:55:23.222Z,52376.72
2022-08-05T19:00:28.945Z,52370.56
2022-08-05T19:06:13.535Z,52393.16
2022-08-05T19:11:02.745Z,52389.06
2022-08-05T19:16:25.085Z,52311.00
2022-08-05T19:21:34.704Z,52331.53
2022-08-05T19:26:54.904Z,52315.13
2022-08-05T19:31:59.290Z,52278.13
2022-08-05T19:37:03.079Z,52282.25
2022-08-05T19:42:09.261Z,52200.09
2022-08-05T19:47:17.181Z,52216.53
2022-08-05T19:52:31.411Z,52115.88
2022-08-05T19:57:49.320Z,52124.09
2022-08-05T20:03:00.726Z,52052.22
2022-08-05T20:08:08.944Z,51976.22
2022-08-05T20:13:15.566Z,51978.28
2022-08-05T20:18:33.173Z,51892.03
2022-08-05T20:23:51.119Z,51830.41
2022-08-05T20:29:00.672Z,51678.44
2022-08-05T20:34:04.590Z,51222.56
2022-08-05T20:39:12.001Z,50832.44
2022-08-05T20:44:30.146Z,50758.53
2022-08-05T20:49:39.327Z,50961.78
2022-08-05T20:55:15.759Z,50592.22
2022-08-05T21:00:40.483Z,50499.84
2022-08-05T21:05:47.806Z,49925.03
2022-08-05T21:10:58.518Z,48911.13
2022-08-05T21:16:03.791Z,47782.56
2022-08-05T21:21:07.717Z,47204.06
2022-08-05T21:26:15.040Z,46998.94
2022-08-05T21:31:20.391Z,46233.91
2022-08-05T21:36:30.064Z,45438.28
2022-08-05T21:41:36.372Z,44132.41
2022-08-05T21:46:41.874Z,42165.19
2022-08-05T21:52:22.373Z,41923.44
2022-08-05T21:57:30.941Z,39451.59
2022-08-05T22:02:34.871Z,38561.16
2022-08-05T22:07:40.228Z,33392.25
2022-08-05T22:14:04.875Z,29393.97
2022-08-05T22:18:26.610Z,24475.78
2022-08-05T22:24:00.968Z,20040.44
2022-08-05T22:29:07.540Z,17694.38
2022-08-05T22:34:20.204Z,16652.13
2022-08-05T22:39:33.969Z,13006.47
2022-08-05T22:44:37.690Z,9364.22
2022-08-05T22:50:20.522Z,7284.47
2022-08-05T22:55:19.452Z,5205.84
2022-08-05T23:00:26.586Z,4686.38
2022-08-05T23:05:36.002Z,3128.34
2022-08-05T23:10:40.008Z,2349.56
2022-08-05T23:15:43.663Z,1311.44
2022-08-05T23:20:55.046Z,273.59
2022-08-05T23:25:58.454Z,-245.22
2022-08-05T23:31:16.620Z,-2060.53
2022-08-05T23:36:28.235Z,-3097.47
2022-08-05T23:41:34.302Z,-4134.16
2022-08-05T23:46:41.032Z,-4911.44
2022-08-05T23:52:05.748Z,-5688.59
2022-08-05T23:57:10.031Z,-6724.56
